createdAt,value
2023-02-24T00:04:51.914Z,7.10
2023-02-24T00:09:54.593Z,7.10
2023-02-24T00:14:57.253Z,7.20
2023-02-24T00:19:59.631Z,7.10
2023-02-24T00:25:03.962Z,7.20
2023-02-24T00:30:07.100Z,7.20
2023-02-24T00:35:09.790Z,7.30
2023-02-24T00:40:12.604Z,7.30
2023-02-24T00:45:17.131Z,7.30
2023-02-24T00:50:19.535Z,7.30
2023-02-24T00:55:23.334Z,7.20
2023-02-24T01:00:25.902Z,7.30
2023-02-24T01:05:29.271Z,7.20
2023-02-24T01:10:34.537Z,7.20
2023-02-24T01:15:37.074Z,7.20
2023-02-24T01:20:39.465Z,7.20
2023-02-24T01:25:47.447Z,7.20
2023-02-24T01:30:49.902Z,7.20
2023-02-24T01:35:52.289Z,7.20
2023-02-24T01:40:59.360Z,7.20
2023-02-24T01:46:01.961Z,7.20
2023-02-24T01:51:04.464Z,7.10
2023-02-24T01:56:07.342Z,7.10
2023-02-24T02:01:10.341Z,7.10
2023-02-24T02:06:14.144Z,7.10
2023-02-24T02:11:20.585Z,7.00
2023-02-24T02:16:47.299Z,7.00
2023-02-24T02:22:05.855Z,7.00
2023-02-24T02:27:29.756Z,7.00
2023-02-24T02:33:01.755Z,7.00
2023-02-24T02:38:27.683Z,7.00
2023-02-24T02:44:08.758Z,7.00
2023-02-24T02:49:22.516Z,7.00
2023-02-24T02:54:54.911Z,6.90
2023-02-24T03:00:21.374Z,7.00
2023-02-24T03:05:30.451Z,6.90
2023-02-24T03:10:34.430Z,6.90
2023-02-24T03:15:42.256Z,6.90
2023-02-24T03:20:57.650Z,6.90
2023-02-24T03:26:07.990Z,7.00
2023-02-24T03:31:37.941Z,7.00
2023-02-24T03:36:40.626Z,6.60
2023-02-24T03:41:56.210Z,6.60
2023-02-24T03:47:02.370Z,6.50
2023-02-24T03:52:11.334Z,6.50
2023-02-24T03:57:27.161Z,6.50
2023-02-24T04:02:32.937Z,6.40
2023-02-24T04:07:53.092Z,6.40
2023-02-24T04:13:10.353Z,6.40
2023-02-24T04:18:20.493Z,6.30
2023-02-24T04:23:31.785Z,6.30
2023-02-24T04:28:35.763Z,6.30
2023-02-24T04:33:40.438Z,6.30
2023-02-24T04:38:45.943Z,6.30
2023-02-24T04:43:51.889Z,6.20
2023-02-24T04:48:54.310Z,6.30
2023-02-24T04:53:56.959Z,6.10
2023-02-24T04:58:59.378Z,6.20
2023-02-24T05:04:01.935Z,6.10
2023-02-24T05:09:14.196Z,6.20
2023-02-24T05:14:20.765Z,6.10
2023-02-24T05:19:41.513Z,6.10
2023-02-24T05:24:43.822Z,6.10
2023-02-24T05:29:46.210Z,6.10
2023-02-24T05:34:48.615Z,6.10
2023-02-24T05:39:54.900Z,6.10
2023-02-24T05:44:57.219Z,6.00
2023-02-24T05:49:59.566Z,6.00
2023-02-24T05:55:07.008Z,6.00
2023-02-24T06:00:16.482Z,5.90
2023-02-24T06:05:25.887Z,5.90
2023-02-24T06:10:29.111Z,5.90
2023-02-24T06:15:32.199Z,5.90
2023-02-24T06:20:34.612Z,5.80
2023-02-24T06:25:39.115Z,5.80
2023-02-24T06:30:41.465Z,5.80
2023-02-24T06:35:43.795Z,5.80
2023-02-24T06:40:47.584Z,5.80
2023-02-24T06:45:50.319Z,5.90
2023-02-24T06:50:52.803Z,5.90
2023-02-24T06:55:56.551Z,5.90
2023-02-24T07:00:59.046Z,5.90
2023-02-24T07:06:20.361Z,6.00
2023-02-24T07:11:23.387Z,5.90
2023-02-24T07:16:28.949Z,5.90
2023-02-24T07:21:39.683Z,5.90
2023-02-24T07:26:43.739Z,5.60
2023-02-24T07:31:46.279Z,5.40
2023-02-24T07:36:49.335Z,5.40
2023-02-24T07:41:55.230Z,5.30
2023-02-24T07:47:01.699Z,5.20
2023-02-24T07:52:04.177Z,5.10
2023-02-24T07:57:06.826Z,5.10
2023-02-24T08:02:11.420Z,5.10
2023-02-24T08:07:14.573Z,5.00
2023-02-24T08:12:21.626Z,5.00
2023-02-24T08:17:26.782Z,5.10
2023-02-24T08:22:37.274Z,5.00
2023-02-24T08:27:42.357Z,4.70
2023-02-24T08:32:46.705Z,4.40
2023-02-24T08:37:54.297Z,4.50
2023-02-24T08:43:16.203Z,4.50
2023-02-24T08:48:38.137Z,4.60
2023-02-24T08:53:42.155Z,4.50
2023-02-24T08:58:49.202Z,4.50
2023-02-24T09:03:57.633Z,4.70
2023-02-24T09:09:18.183Z,4.80
2023-02-24T09:14:28.982Z,4.70
2023-02-24T09:19:52.228Z,4.90
2023-02-24T09:25:14.513Z,5.00
2023-02-24T09:30:35.938Z,5.10
2023-02-24T09:35:41.944Z,5.00
2023-02-24T09:40:49.579Z,5.00
2023-02-24T09:45:59.444Z,5.00
2023-02-24T09:51:05.201Z,5.10
2023-02-24T09:56:22.134Z,4.90
2023-02-24T10:02:02.608Z,5.20
2023-02-24T10:07:38.467Z,5.10
2023-02-24T10:12:41.422Z,5.10
2023-02-24T10:18:06.720Z,4.90
2023-02-24T10:23:35.307Z,5.10
2023-02-24T10:28:54.690Z,5.30
2023-02-24T10:34:12.342Z,5.70
2023-02-24T10:39:27.037Z,5.40
2023-02-24T10:44:36.732Z,5.30
2023-02-24T10:49:58.523Z,5.50
2023-02-24T10:55:26.653Z,5.60
2023-02-24T11:00:47.952Z,5.50
2023-02-24T11:06:05.487Z,5.50
2023-02-24T11:11:20.489Z,5.30
2023-02-24T11:16:42.201Z,5.20
2023-02-24T11:21:44.568Z,5.20
2023-02-24T11:26:48.332Z,5.50
2023-02-24T11:32:16.919Z,5.60
2023-02-24T11:37:40.616Z,5.50
2023-02-24T11:43:18.605Z,5.60
2023-02-24T11:48:47.315Z,5.70
2023-02-24T11:53:52.200Z,5.70
2023-02-24T11:59:19.021Z,5.40
2023-02-24T12:04:21.722Z,5.40
2023-02-24T12:09:30.715Z,5.30
2023-02-24T12:14:41.841Z,5.30
2023-02-24T12:19:59.229Z,5.40
2023-02-24T12:25:01.736Z,5.30
2023-02-24T12:30:23.186Z,5.30
2023-02-24T12:35:55.017Z,5.30
2023-02-24T12:41:14.799Z,5.60
2023-02-24T12:46:29.176Z,5.80
2023-02-24T12:51:43.594Z,5.70
2023-02-24T12:56:58.172Z,5.80
2023-02-24T13:02:43.408Z,5.90
2023-02-24T13:07:52.070Z,6.00
2023-02-24T13:13:07.668Z,5.80
2023-02-24T13:18:10.517Z,5.80
2023-02-24T13:23:22.541Z,5.80
2023-02-24T13:28:26.331Z,5.80
2023-02-24T13:33:57.050Z,5.80
2023-02-24T13:39:20.407Z,5.90
2023-02-24T13:44:26.627Z,5.90
2023-02-24T13:49:31.724Z,5.90
2023-02-24T13:54:55.967Z,5.80
2023-02-24T14:00:10.097Z,5.70
2023-02-24T14:05:23.184Z,5.80
2023-02-24T14:10:28.761Z,5.70
2023-02-24T14:15:32.044Z,5.70
2023-02-24T14:20:38.016Z,5.90
2023-02-24T14:25:41.171Z,5.70
2023-02-24T14:30:43.661Z,5.80
2023-02-24T14:35:47.270Z,5.90
2023-02-24T14:40:49.771Z,5.60
2023-02-24T14:45:53.406Z,5.60
2023-02-24T14:51:12.175Z,5.50
2023-02-24T14:56:15.636Z,5.40
2023-02-24T15:01:34.484Z,5.50
2023-02-24T15:06:41.012Z,5.50
2023-02-24T15:11:43.764Z,5.50
2023-02-24T15:16:49.852Z,5.40
2023-02-24T15:21:52.535Z,5.40
2023-02-24T15:27:19.308Z,5.30
2023-02-24T15:32:25.405Z,5.30
2023-02-24T15:37:33.304Z,5.30
2023-02-24T15:42:36.057Z,5.30
2023-02-24T15:47:45.677Z,5.30
2023-02-24T15:52:48.398Z,5.20
2023-02-24T15:58:02.212Z,5.20
2023-02-24T16:03:04.646Z,5.20
2023-02-24T16:08:13.629Z,5.10
2023-02-24T16:13:20.258Z,5.20
2023-02-24T16:18:25.752Z,5.10
2023-02-24T16:23:28.102Z,5.00
2023-02-24T16:28:31.967Z,5.00
2023-02-24T16:33:51.697Z,4.90
2023-02-24T16:38:56.659Z,4.90
2023-02-24T16:43:59.063Z,4.80
2023-02-24T16:49:01.576Z,4.80
2023-02-24T16:54:04.008Z,4.80
2023-02-24T16:59:06.406Z,4.80
2023-02-24T17:04:11.173Z,4.80
2023-02-24T17:09:15.707Z,4.80
2023-02-24T17:14:20.125Z,4.70
2023-02-24T17:19:22.869Z,4.70
2023-02-24T17:24:25.792Z,4.70
2023-02-24T17:29:28.256Z,4.70
2023-02-24T17:34:30.688Z,4.70
2023-02-24T17:39:33.102Z,4.70
2023-02-24T17:44:35.494Z,4.60
2023-02-24T17:49:37.941Z,4.50
2023-02-24T17:54:40.465Z,4.50
2023-02-24T17:59:45.845Z,4.40
2023-02-24T18:04:51.740Z,4.40
2023-02-24T18:09:54.098Z,4.40
2023-02-24T18:15:07.965Z,4.30
2023-02-24T18:20:12.615Z,4.30
2023-02-24T18:25:15.199Z,4.20
2023-02-24T18:30:18.672Z,4.20
2023-02-24T18:35:22.113Z,4.10
2023-02-24T18:40:25.976Z,4.00
2023-02-24T18:45:28.467Z,4.00
2023-02-24T18:50:32.599Z,3.90
2023-02-24T18:55:36.059Z,3.90
2023-02-24T19:00:38.891Z,3.90
2023-02-24T19:05:41.337Z,4.00
2023-02-24T19:10:44.202Z,4.00
2023-02-24T19:15:48.317Z,4.10
2023-02-24T19:20:51.185Z,4.10
2023-02-24T19:25:53.963Z,4.30
2023-02-24T19:30:56.564Z,4.10
2023-02-24T19:35:59.881Z,4.40
2023-02-24T19:41:02.321Z,4.00
2023-02-24T19:46:09.475Z,4.00
2023-02-24T19:51:21.187Z,4.00
2023-02-24T19:56:28.699Z,4.00
2023-02-24T20:01:31.312Z,4.00
2023-02-24T20:06:37.438Z,3.90
2023-02-24T20:11:40.321Z,3.80
2023-02-24T20:16:44.014Z,3.80
2023-02-24T20:21:47.766Z,3.80
2023-02-24T20:26:51.076Z,3.90
2023-02-24T20:31:53.509Z,3.80
2023-02-24T20:36:55.919Z,3.70
2023-02-24T20:41:58.780Z,3.70
2023-02-24T20:47:01.125Z,3.60
2023-02-24T20:52:04.215Z,3.60
2023-02-24T20:57:08.965Z,3.50
2023-02-24T21:02:12.817Z,3.50
2023-02-24T21:07:15.205Z,3.50
2023-02-24T21:12:18.106Z,3.50
2023-02-24T21:17:20.822Z,3.50
2023-02-24T21:22:23.523Z,3.40
2023-02-24T21:27:26.646Z,3.50
2023-02-24T21:32:29.069Z,3.40
2023-02-24T21:37:32.850Z,3.40
2023-02-24T21:42:36.064Z,3.40
2023-02-24T21:47:38.481Z,3.40
2023-02-24T21:52:40.895Z,3.40
2023-02-24T21:57:44.848Z,3.30
2023-02-24T22:02:49.509Z,3.30
2023-02-24T22:07:52.903Z,3.30
2023-02-24T22:12:56.392Z,3.30
2023-02-24T22:17:58.739Z,3.30
2023-02-24T22:23:01.341Z,3.20
2023-02-24T22:28:03.773Z,3.20
2023-02-24T22:33:06.123Z,3.20
2023-02-24T22:38:08.417Z,3.20
2023-02-24T22:43:10.771Z,3.20
2023-02-24T22:48:13.156Z,3.20
2023-02-24T22:53:15.531Z,3.20
2023-02-24T22:58:19.492Z,3.20
2023-02-24T23:03:25.854Z,3.20
2023-02-24T23:08:30.088Z,3.20
2023-02-24T23:13:35.415Z,3.20
2023-02-24T23:18:38.021Z,3.20
2023-02-24T23:23:40.621Z,3.20
2023-02-24T23:28:43.029Z,3.20
2023-02-24T23:33:45.392Z,3.30
2023-02-24T23:38:48.087Z,3.20
2023-02-24T23:43:50.434Z,3.20
2023-02-24T23:48:53.620Z,3.30
2023-02-24T23:53:56.062Z,3.30
2023-02-24T23:58:59.364Z,3.30
